createdAt,value
2017-09-23T00:00:08.915Z,58.18
2017-09-23T00:01:08.610Z,57.99
2017-09-23T00:02:08.631Z,58.28
2017-09-23T00:03:08.975Z,58.15
2017-09-23T00:04:08.990Z,58.37
2017-09-23T00:05:08.689Z,58.28
2017-09-23T00:06:09.039Z,58.56
2017-09-23T00:07:09.049Z,58.15
2017-09-23T00:08:09.066Z,58.18
2017-09-23T00:09:08.763Z,58.18
2017-09-23T00:10:08.782Z,58.34
2017-09-23T00:11:09.127Z,58.54
2017-09-23T00:12:09.144Z,58.15
2017-09-23T00:13:08.840Z,58.66
2017-09-23T00:14:08.862Z,58.63
2017-09-23T00:15:08.884Z,58.66
2017-09-23T00:16:09.221Z,58.63
2017-09-23T00:17:09.242Z,57.99
2017-09-23T00:18:09.352Z,58.83
2017-09-23T00:19:09.111Z,58.83
2017-09-23T00:20:09.109Z,58.73
2017-09-23T00:21:09.425Z,58.83
2017-09-23T00:22:09.420Z,58.73
2017-09-23T00:23:09.033Z,58.92
2017-09-23T00:24:09.052Z,58.92
2017-09-23T00:25:09.399Z,58.92
2017-09-23T00:26:09.090Z,58.83
2017-09-23T00:27:09.438Z,58.63
2017-09-23T00:28:09.127Z,58.63
2017-09-23T00:29:09.217Z,58.73
2017-09-23T00:30:09.167Z,58.73
2017-09-23T00:31:09.183Z,59.01
2017-09-23T00:32:09.529Z,58.73
2017-09-23T00:33:09.221Z,59.3
2017-09-23T00:34:09.565Z,59.11
2017-09-23T00:35:09.260Z,59.3
2017-09-23T00:36:09.279Z,59.11
2017-09-23T00:37:09.624Z,59.11
2017-09-23T00:38:09.642Z,58.92
2017-09-23T00:39:09.338Z,59.11
2017-09-23T00:40:09.677Z,58.92
2017-09-23T00:41:09.792Z,59.11
2017-09-23T00:42:09.718Z,59.2
2017-09-23T00:43:09.416Z,59.11
2017-09-23T00:44:09.764Z,59.11
2017-09-23T00:45:09.450Z,58.92
2017-09-23T00:46:09.471Z,59.11
2017-09-23T00:47:09.814Z,59.01
2017-09-23T00:48:09.833Z,59.01
2017-09-23T00:49:09.525Z,59.11
2017-09-23T00:50:09.870Z,59.01
2017-09-23T00:51:09.564Z,59.01
2017-09-23T00:52:22.322Z,58.92
2017-09-23T00:53:09.932Z,59.2
2017-09-23T00:54:09.655Z,59.59
2017-09-23T00:55:09.960Z,59.69
2017-09-23T00:56:09.979Z,59.49
2017-09-23T00:57:09.683Z,59.4
2017-09-23T00:58:09.700Z,59.4
2017-09-23T00:59:09.722Z,59.4
2017-09-23T01:00:10.062Z,59.49
2017-09-23T01:01:09.779Z,59.49
2017-09-23T01:02:09.878Z,59.59
2017-09-23T01:03:10.000Z,59.49
2017-09-23T01:04:09.814Z,58.92
2017-09-23T01:05:10.150Z,59.2
2017-09-23T01:06:09.851Z,59.49
2017-09-23T01:07:09.963Z,59.3
2017-09-23T01:08:10.217Z,59.78
2017-09-23T01:09:10.238Z,59.2
2017-09-23T01:10:09.931Z,59.3
2017-09-23T01:11:09.944Z,59.4
2017-09-23T01:12:09.966Z,59.11
2017-09-23T01:13:10.303Z,60.16
2017-09-23T01:14:10.406Z,59.88
2017-09-23T01:16:10.041Z,59.3
2017-09-23T01:17:10.376Z,59.49
2017-09-23T01:18:10.407Z,59.69
2017-09-23T01:19:10.104Z,59.69
2017-09-23T01:20:10.112Z,59.69
2017-09-23T01:21:10.458Z,59.4
2017-09-23T01:22:10.152Z,59.78
2017-09-23T01:23:10.172Z,59.88
2017-09-23T01:24:10.513Z,59.66
2017-09-23T01:25:10.536Z,59.69
2017-09-23T01:26:10.549Z,59.78
2017-09-23T01:27:10.574Z,59.69
2017-09-23T01:28:10.590Z,59.75
2017-09-23T01:29:10.289Z,60.13
2017-09-23T01:30:10.631Z,59.84
2017-09-23T01:31:10.646Z,59.94
2017-09-23T01:32:10.679Z,59.66
2017-09-23T01:33:10.819Z,59.75
2017-09-23T01:34:10.381Z,60.23
2017-09-23T01:35:10.401Z,59.94
2017-09-23T01:36:10.944Z,60.04
2017-09-23T01:37:10.987Z,60.04
2017-09-23T01:38:10.862Z,60.13
2017-09-23T01:39:10.483Z,60.04
2017-09-23T01:40:10.840Z,59.94
2017-09-23T01:41:10.830Z,59.84
2017-09-23T01:42:10.849Z,60.04
2017-09-23T01:43:10.867Z,60.52
2017-09-23T01:44:10.564Z,60.23
2017-09-23T01:45:10.585Z,60.23
2017-09-23T01:46:10.610Z,60.13
2017-09-23T01:47:10.948Z,60.52
2017-09-23T01:48:10.967Z,60.42
2017-09-23T01:49:10.662Z,60.42
2017-09-23T01:50:10.680Z,60.23
2017-09-23T01:51:10.699Z,60.23
2017-09-23T01:52:11.042Z,60.42
2017-09-23T01:53:11.062Z,60.13
2017-09-23T01:54:10.752Z,60.23
2017-09-23T01:55:10.775Z,60.42
2017-09-23T01:56:10.792Z,60.61
2017-09-23T01:57:11.137Z,60.33
2017-09-23T01:58:11.162Z,60.33
2017-09-23T01:59:10.849Z,60.23
2017-09-23T02:00:10.865Z,60.23
2017-09-23T02:01:11.209Z,60.23
2017-09-23T02:02:11.226Z,60.23
2017-09-23T02:03:11.243Z,60.42
2017-09-23T02:04:10.941Z,60.13
2017-09-23T02:05:10.962Z,60.13
2017-09-23T02:06:11.304Z,60.04
2017-09-23T02:07:10.998Z,60.23
2017-09-23T02:08:11.019Z,60.42
2017-09-23T02:09:11.032Z,60.23
2017-09-23T02:10:11.376Z,60.33
2017-09-23T02:11:11.391Z,60.13
2017-09-23T02:12:11.417Z,60.42
2017-09-23T02:13:11.111Z,60.33
2017-09-23T02:14:11.123Z,60.23
2017-09-23T02:15:11.510Z,60.33
2017-09-23T02:16:11.166Z,60.33
2017-09-23T02:17:11.510Z,60.52
2017-09-23T02:18:11.521Z,60.61
2017-09-23T02:19:11.221Z,60.71
2017-09-23T02:20:11.239Z,60.23
2017-09-23T02:21:11.580Z,60.71
2017-09-23T02:22:11.598Z,60.9
2017-09-23T02:23:11.292Z,60.71
2017-09-23T02:24:11.631Z,60.52
2017-09-23T02:25:11.653Z,60.87
2017-09-23T02:26:11.350Z,60.68
2017-09-23T02:27:11.746Z,61.16
2017-09-23T02:28:11.384Z,60.96
2017-09-23T02:29:11.725Z,60.77
2017-09-23T02:30:11.986Z,60.68
2017-09-23T02:31:11.762Z,60.77
2017-09-23T02:32:11.794Z,60.68
2017-09-23T02:33:11.480Z,60.77
2017-09-23T02:34:11.818Z,60.96
2017-09-23T02:35:11.837Z,60.77
2017-09-23T02:36:11.533Z,60.68
2017-09-23T02:37:11.548Z,60.68
2017-09-23T02:38:11.578Z,60.77
2017-09-23T02:39:11.922Z,60.87
2017-09-23T02:40:11.932Z,60.49
2017-09-23T02:41:11.943Z,60.58
2017-09-23T02:42:11.641Z,60.96
2017-09-23T02:43:11.662Z,60.58
2017-09-23T02:44:11.679Z,60.87
2017-09-23T02:45:12.016Z,60.96
2017-09-23T02:46:11.720Z,60.68
2017-09-23T02:47:12.072Z,60.49
2017-09-23T02:48:12.082Z,60.96
2017-09-23T02:49:11.772Z,61.16
2017-09-23T02:50:12.114Z,61.16
2017-09-23T02:51:12.129Z,60.96
2017-09-23T02:52:12.152Z,61.35
2017-09-23T02:53:11.849Z,61.16
2017-09-23T02:54:12.193Z,61.35
2017-09-23T02:55:12.202Z,61.16
2017-09-23T02:56:12.073Z,61.25
2017-09-23T02:57:12.421Z,61.06
2017-09-23T02:58:12.260Z,61.16
2017-09-23T02:59:11.956Z,60.77
2017-09-23T03:00:12.297Z,61.06
2017-09-23T03:01:12.314Z,60.68
2017-09-23T03:02:12.012Z,61.06
2017-09-23T03:03:12.031Z,61.25
2017-09-23T03:04:12.426Z,61.06
2017-09-23T03:05:12.065Z,60.96
2017-09-23T03:06:12.087Z,60.96
2017-09-23T03:07:12.428Z,61.06
2017-09-23T03:08:12.121Z,60.87
2017-09-23T03:09:12.465Z,60.77
2017-09-23T03:10:12.484Z,60.87
2017-09-23T03:11:12.497Z,60.96
2017-09-23T03:12:12.520Z,60.87
2017-09-23T03:13:12.537Z,60.58
2017-09-23T03:14:12.231Z,60.96
2017-09-23T03:15:12.573Z,61.06
2017-09-23T03:16:12.266Z,61.16
2017-09-23T03:17:12.606Z,61.51
2017-09-23T03:18:12.303Z,61.32
2017-09-23T03:19:12.643Z,61.6
2017-09-23T03:20:12.665Z,61.41
2017-09-23T03:21:12.360Z,61.32
2017-09-23T03:22:12.694Z,60.93
2017-09-23T03:23:12.717Z,61.41
2017-09-23T03:24:12.410Z,61.51
2017-09-23T03:25:12.428Z,61.13
2017-09-23T03:26:12.481Z,61.13
2017-09-23T03:27:12.473Z,61.32
2017-09-23T03:28:12.482Z,60.93
2017-09-23T03:29:12.825Z,61.51
2017-09-23T03:30:12.862Z,61.22
2017-09-23T03:31:12.540Z,61.41
2017-09-23T03:32:12.553Z,61.41
2017-09-23T03:33:12.576Z,61.22
2017-09-23T03:34:12.594Z,61.41
2017-09-23T03:35:12.936Z,61.69
2017-09-23T03:36:12.953Z,61.22
2017-09-23T03:37:12.974Z,62.08
2017-09-23T03:38:12.988Z,61.51
2017-09-23T03:39:12.679Z,61.89
2017-09-23T03:40:12.701Z,61.89
2017-09-23T03:41:13.058Z,61.89
2017-09-23T03:42:12.738Z,61.51
2017-09-23T03:43:12.756Z,61.51
2017-09-23T03:44:13.092Z,61.79
2017-09-23T03:45:13.112Z,61.6
2017-09-23T03:46:12.807Z,61.6
2017-09-23T03:47:13.144Z,61.51
2017-09-23T03:48:13.290Z,62.18
2017-09-23T03:49:13.067Z,61.6
2017-09-23T03:50:13.383Z,61.69
2017-09-23T03:51:13.067Z,61.98
2017-09-23T03:52:13.064Z,61.6
2017-09-23T03:53:13.052Z,61.69
2017-09-23T03:54:13.389Z,61.69
2017-09-23T03:55:13.072Z,62.18
2017-09-23T03:56:13.070Z,61.89
2017-09-23T03:57:13.429Z,61.98
2017-09-23T03:58:13.102Z,61.89
2017-09-23T03:59:13.127Z,62.18
2017-09-23T04:00:13.135Z,61.69
2017-09-23T04:01:13.082Z,62.18
2017-09-23T04:02:13.097Z,62.18
2017-09-23T04:03:13.137Z,61.79
2017-09-23T04:04:13.135Z,62.27
2017-09-23T04:05:13.159Z,62.27
2017-09-23T04:06:13.491Z,62.27
2017-09-23T04:07:13.506Z,61.79
2017-09-23T04:08:13.596Z,62.08
2017-09-23T04:09:13.221Z,62.37
2017-09-23T04:10:13.572Z,61.79
2017-09-23T04:11:13.263Z,62.05
2017-09-23T04:12:13.274Z,62.08
2017-09-23T04:13:13.619Z,62.08
2017-09-23T04:14:13.629Z,61.89
2017-09-23T04:15:13.325Z,62.08
2017-09-23T04:16:13.343Z,62.24
2017-09-23T04:17:13.688Z,62.18
2017-09-23T04:18:13.704Z,62.15
2017-09-23T04:19:13.398Z,62.05
2017-09-23T04:20:13.738Z,62.43
2017-09-23T04:21:13.758Z,62.91
2017-09-23T04:22:13.781Z,62.71
2017-09-23T04:23:13.560Z,62.62
2017-09-23T04:24:13.486Z,62.62
2017-09-23T04:25:13.823Z,62.81
2017-09-23T04:26:13.847Z,62.71
2017-09-23T04:27:13.543Z,62.62
2017-09-23T04:28:13.881Z,62.62
2017-09-23T04:29:13.908Z,62.71
2017-09-23T04:30:13.918Z,62.71
2017-09-23T04:31:13.619Z,62.71
2017-09-23T04:32:13.952Z,62.71
2017-09-23T04:33:13.650Z,62.71
2017-09-23T04:34:13.664Z,62.71
2017-09-23T04:35:13.684Z,62.71
2017-09-23T04:36:14.029Z,62.52
2017-09-23T04:37:14.045Z,62.43
2017-09-23T04:38:13.740Z,62.52
2017-09-23T04:39:14.075Z,62.81
2017-09-23T04:40:14.098Z,62.91
2017-09-23T04:41:14.108Z,62.71
2017-09-23T04:42:14.136Z,62.81
2017-09-23T04:43:14.151Z,62.81
2017-09-23T04:44:14.167Z,62.71
2017-09-23T04:45:13.900Z,62.71
2017-09-23T04:46:13.904Z,62.62
2017-09-23T04:47:13.918Z,62.52
2017-09-23T04:48:14.237Z,62.71
2017-09-23T04:49:13.928Z,62.71
2017-09-23T04:50:13.948Z,62.71
2017-09-23T04:51:14.291Z,62.43
2017-09-23T04:52:13.985Z,62.43
2017-09-23T04:53:14.327Z,62.71
2017-09-23T04:54:14.024Z,62.71
2017-09-23T04:55:14.359Z,62.91
2017-09-23T04:56:14.377Z,62.71
2017-09-23T04:57:14.392Z,62.62
2017-09-23T04:58:14.409Z,62.81
2017-09-23T04:59:14.431Z,63
2017-09-23T05:00:14.124Z,62.81
2017-09-23T05:01:14.144Z,62.52
2017-09-23T05:02:14.691Z,62.62
2017-09-23T05:03:14.175Z,63.1
2017-09-23T05:04:14.516Z,62.81
2017-09-23T05:05:14.538Z,62.71
2017-09-23T05:06:14.549Z,63.39
2017-09-23T05:07:14.250Z,62.62
2017-09-23T05:08:14.591Z,63
2017-09-23T05:09:14.758Z,62.91
2017-09-23T05:10:14.618Z,62.91
2017-09-23T05:11:14.320Z,63
2017-09-23T05:12:14.660Z,62.91
2017-09-23T05:13:14.681Z,62.91
2017-09-23T05:14:14.366Z,63.2
2017-09-23T05:15:14.390Z,63.29
2017-09-23T05:16:14.516Z,63.2
2017-09-23T05:17:14.838Z,63.2
2017-09-23T05:18:14.761Z,62.91
2017-09-23T05:19:14.455Z,63.1
2017-09-23T05:20:14.796Z,63.48
2017-09-23T05:21:14.817Z,63
2017-09-23T05:22:14.512Z,63.48
2017-09-23T05:23:14.531Z,63.1
2017-09-23T05:24:14.880Z,63.48
2017-09-23T05:25:14.886Z,62.91
2017-09-23T05:26:14.902Z,63.29
2017-09-23T05:27:14.922Z,63.39
2017-09-23T05:28:14.940Z,63
2017-09-23T05:29:14.995Z,63.1
2017-09-23T05:30:14.653Z,63.2
2017-09-23T05:31:14.667Z,63.2
2017-09-23T05:32:15.004Z,63.29
2017-09-23T05:33:15.023Z,63.29
2017-09-23T05:34:14.720Z,63.2
2017-09-23T05:35:14.740Z,63.39
2017-09-23T05:36:15.073Z,63.2
2017-09-23T05:37:14.774Z,63.39
2017-09-23T05:38:14.791Z,63.48
2017-09-23T05:39:14.803Z,63.2
2017-09-23T05:40:15.144Z,63.39
2017-09-23T05:41:14.841Z,63.29
2017-09-23T05:42:14.861Z,63.2
2017-09-23T05:43:15.199Z,63.48
2017-09-23T05:44:15.217Z,63.2
2017-09-23T05:45:15.231Z,63.57
2017-09-23T05:46:14.928Z,63.86
2017-09-23T05:47:14.967Z,63.96
2017-09-23T05:48:15.298Z,63.76
2017-09-23T05:49:14.991Z,63.67
2017-09-23T05:50:15.338Z,63.96
2017-09-23T05:51:15.339Z,63.86
2017-09-23T05:52:15.031Z,63.96
2017-09-23T05:53:15.059Z,63.39
2017-09-23T05:54:15.068Z,63.57
2017-09-23T05:55:15.084Z,63.67
2017-09-23T05:56:15.423Z,63.96
2017-09-23T05:57:15.440Z,63.86
2017-09-23T05:58:15.140Z,63.67
2017-09-23T05:59:15.473Z,63.86
2017-09-23T06:00:15.184Z,63.57
2017-09-23T06:01:15.517Z,63.67
2017-09-23T06:02:15.208Z,63.76
2017-09-23T06:03:15.223Z,63.39
2017-09-23T06:04:15.245Z,63.67
2017-09-23T06:05:15.260Z,63.39
2017-09-23T06:06:15.599Z,63.48
2017-09-23T06:07:15.621Z,63.86
2017-09-23T06:08:15.632Z,64.05
2017-09-23T06:09:15.847Z,63.76
2017-09-23T06:10:15.350Z,63.39
2017-09-23T06:11:15.704Z,63.76
2017-09-23T06:12:15.702Z,63.96
2017-09-23T06:13:15.718Z,63.96
2017-09-23T06:14:15.734Z,64.05
2017-09-23T06:15:15.753Z,63.86
2017-09-23T06:16:15.769Z,63.76
2017-09-23T06:17:15.790Z,63.76
2017-09-23T06:18:15.811Z,64.05
2017-09-23T06:19:15.508Z,63.57
2017-09-23T06:20:15.841Z,63.86
2017-09-23T06:21:15.862Z,64.05
2017-09-23T06:22:15.887Z,63.96
2017-09-23T06:23:15.899Z,63.86
2017-09-23T06:24:15.913Z,63.48
2017-09-23T06:25:15.607Z,63.76
2017-09-23T06:26:16.131Z,63.96
2017-09-23T06:27:15.964Z,63.67
2017-09-23T06:28:15.658Z,63.86
2017-09-23T06:29:15.999Z,64.25
2017-09-23T06:30:15.693Z,63.96
2017-09-23T06:31:15.710Z,63.86
2017-09-23T06:32:15.733Z,63.86
2017-09-23T06:33:15.749Z,63.48
2017-09-23T06:34:16.080Z,64.05
2017-09-23T06:35:15.782Z,63.67
2017-09-23T06:36:15.800Z,63.76
2017-09-23T06:37:16.134Z,63.57
2017-09-23T06:38:15.836Z,63.86
2017-09-23T06:39:16.177Z,63.86
2017-09-23T06:40:15.865Z,64.05
2017-09-23T06:41:16.204Z,64.05
2017-09-23T06:42:15.904Z,64.43
2017-09-23T06:43:16.245Z,63.99
2017-09-23T06:44:16.259Z,64.15
2017-09-23T06:45:16.282Z,63.96
2017-09-23T06:46:15.971Z,64.18
2017-09-23T06:47:15.987Z,64.47
2017-09-23T06:48:16.006Z,64.09
2017-09-23T06:49:16.352Z,64.09
2017-09-23T06:50:16.368Z,64.37
2017-09-23T06:51:16.060Z,64.09
2017-09-23T06:52:16.401Z,63.8
2017-09-23T06:53:16.094Z,64.09
2017-09-23T06:54:16.438Z,63.7
2017-09-23T06:55:16.455Z,63.8
2017-09-23T06:56:16.471Z,63.7
2017-09-23T06:57:16.490Z,63.51
2017-09-23T06:58:16.501Z,63.7
2017-09-23T06:59:16.200Z,63.7
2017-09-23T07:00:16.540Z,63.99
2017-09-23T07:01:16.559Z,64.09
2017-09-23T07:02:16.574Z,63.51
2017-09-23T07:03:16.274Z,63.99
2017-09-23T07:04:16.608Z,63.32
2017-09-23T07:05:16.307Z,63.42
2017-09-23T07:06:16.324Z,63.99
2017-09-23T07:07:16.659Z,63.42
2017-09-23T07:08:16.358Z,63.54
2017-09-23T07:09:16.790Z,63.83
2017-09-23T07:10:16.613Z,63.83
2017-09-23T07:11:16.608Z,63.26
2017-09-23T07:12:16.920Z,64.12
2017-09-23T07:13:16.918Z,63.83
2017-09-23T07:14:16.979Z,64.22
2017-09-23T07:15:16.686Z,63.93
2017-09-23T07:16:16.612Z,63.83
2017-09-23T07:17:16.628Z,63.83
2017-09-23T07:18:16.656Z,63.45
2017-09-23T07:19:16.672Z,63.73
2017-09-23T07:20:16.833Z,64.02
2017-09-23T07:21:16.909Z,63.93
2017-09-23T07:22:16.700Z,63.39
2017-09-23T07:23:16.943Z,63.54
2017-09-23T07:24:16.736Z,63.29
2017-09-23T07:25:17.008Z,63.19
2017-09-23T07:26:17.000Z,63.29
2017-09-23T07:27:17.012Z,63.39
2017-09-23T07:28:17.037Z,63.48
2017-09-23T07:29:16.729Z,63.19
2017-09-23T07:30:16.963Z,63.29
2017-09-23T07:31:17.099Z,63.19
2017-09-23T07:32:16.807Z,63.39
2017-09-23T07:33:17.132Z,63.1
2017-09-23T07:34:17.139Z,62.9
2017-09-23T07:35:17.154Z,63
2017-09-23T07:36:16.882Z,62.84
2017-09-23T07:37:17.318Z,62.94
2017-09-23T07:38:16.891Z,63.32
2017-09-23T07:39:17.323Z,63.23
2017-09-23T07:40:16.924Z,63.23
2017-09-23T07:41:16.948Z,63.23
2017-09-23T07:42:17.346Z,63.42
2017-09-23T07:43:17.317Z,63.42
2017-09-23T07:44:17.000Z,63.42
2017-09-23T07:45:17.039Z,63.32
2017-09-23T07:46:17.036Z,63.32
2017-09-23T07:47:17.464Z,63.32
2017-09-23T07:48:17.069Z,63.45
2017-09-23T07:49:17.313Z,62.97
2017-09-23T07:50:17.126Z,63.26
2017-09-23T07:51:17.145Z,63.45
2017-09-23T07:52:17.144Z,63.54
2017-09-23T07:53:17.162Z,63.93
2017-09-23T07:54:17.194Z,63.73
2017-09-23T07:55:17.199Z,63.93
2017-09-23T07:56:17.219Z,64.12
2017-09-23T07:57:17.563Z,64.59
2017-09-23T07:58:17.573Z,64.5
2017-09-23T07:59:17.275Z,64.02
2017-09-23T08:00:17.296Z,64.15
2017-09-23T08:01:17.407Z,64.53
2017-09-23T08:02:17.438Z,64.25
2017-09-23T08:03:17.348Z,64.53
2017-09-23T08:04:17.372Z,64.34
2017-09-23T08:05:17.383Z,64.82
2017-09-23T08:06:17.401Z,64.53
2017-09-23T08:07:17.745Z,64.53
2017-09-23T08:08:17.442Z,64.43
2017-09-23T08:09:17.455Z,64.72
2017-09-23T08:10:17.477Z,64.66
2017-09-23T08:11:17.493Z,64.37
2017-09-23T08:12:17.835Z,64.85
2017-09-23T08:13:17.936Z,64.76
2017-09-23T08:14:17.759Z,64.47
2017-09-23T08:15:18.071Z,64.56
2017-09-23T08:16:17.758Z,64.47
2017-09-23T08:17:18.078Z,64.47
2017-09-23T08:18:18.084Z,64.47
2017-09-23T08:19:18.081Z,64.37
2017-09-23T08:20:17.729Z,64.5
2017-09-23T08:21:18.047Z,64.5
2017-09-23T08:22:17.724Z,64.22
2017-09-23T08:23:17.719Z,64.5
2017-09-23T08:24:18.060Z,64.5
2017-09-23T08:25:17.754Z,64.31
2017-09-23T08:26:18.101Z,64.59
2017-09-23T08:27:18.119Z,64.59
2017-09-23T08:28:18.223Z,64.69
2017-09-23T08:29:18.159Z,63.83
2017-09-23T08:30:17.864Z,63.64
2017-09-23T08:31:17.864Z,63.54
2017-09-23T08:32:18.214Z,63.57
2017-09-23T08:33:18.229Z,64.05
2017-09-23T08:34:18.251Z,63.96
2017-09-23T08:35:17.940Z,64.25
2017-09-23T08:36:18.286Z,63.76
2017-09-23T08:37:18.299Z,63.48
2017-09-23T08:38:17.998Z,63.67
2017-09-23T08:39:18.343Z,63.76
2017-09-23T08:40:18.411Z,63.38
2017-09-23T08:41:18.378Z,63.48
2017-09-23T08:42:18.403Z,63.51
2017-09-23T08:43:18.423Z,63.12
2017-09-23T08:44:18.439Z,63.32
2017-09-23T08:45:18.458Z,63.03
2017-09-23T08:46:18.484Z,63.03
2017-09-23T08:47:18.493Z,63.03
2017-09-23T08:48:18.515Z,63.03
2017-09-23T08:49:18.537Z,63.03
2017-09-23T08:50:18.228Z,62.36
2017-09-23T08:51:18.568Z,62.07
2017-09-23T08:52:18.272Z,62.29
2017-09-23T08:53:18.611Z,62.26
2017-09-23T08:54:18.630Z,62.19
2017-09-23T08:55:18.647Z,61.91
2017-09-23T08:56:18.667Z,62.29
2017-09-23T08:57:18.365Z,61.52
2017-09-23T08:58:18.706Z,61.72
2017-09-23T08:59:18.758Z,61.52
2017-09-23T09:00:18.642Z,61.24
2017-09-23T09:01:18.451Z,61.55
2017-09-23T09:02:18.788Z,61.46
2017-09-23T09:03:18.808Z,61.84
2017-09-23T09:04:18.820Z,61.08
2017-09-23T09:05:18.524Z,61.08
2017-09-23T09:06:18.539Z,61.55
2017-09-23T09:07:18.888Z,61.08
2017-09-23T09:08:18.582Z,60.78
2017-09-23T09:09:18.601Z,60.63
2017-09-23T09:10:18.944Z,60.24
2017-09-23T09:11:18.965Z,60.82
2017-09-23T09:12:18.993Z,60.24
2017-09-23T09:13:19.003Z,60.53
2017-09-23T09:14:19.032Z,59.86
2017-09-23T09:15:18.719Z,59.76
2017-09-23T09:16:18.772Z,59.38
2017-09-23T09:17:18.762Z,59.5
2017-09-23T09:18:18.778Z,59.6
2017-09-23T09:19:19.154Z,59.5
2017-09-23T09:20:19.145Z,59.6
2017-09-23T09:21:19.172Z,59.31
2017-09-23T09:22:19.289Z,59.02
2017-09-23T09:23:18.884Z,58.92
2017-09-23T09:24:19.220Z,59.22
2017-09-23T09:25:18.926Z,58.64
2017-09-23T09:26:18.941Z,58.54
2017-09-23T09:27:19.294Z,58.25
2017-09-23T09:28:19.305Z,58.35
2017-09-23T09:29:19.006Z,58.15
2017-09-23T09:30:19.341Z,57.97
2017-09-23T09:31:19.044Z,58.09
2017-09-23T09:32:19.384Z,57.8
2017-09-23T09:33:19.409Z,57.8
2017-09-23T09:34:19.103Z,57.9
2017-09-23T09:35:19.193Z,57.7
2017-09-23T09:36:19.146Z,57.6
2017-09-23T09:37:19.490Z,57.35
2017-09-23T09:38:19.511Z,57.32
2017-09-23T09:39:19.530Z,57.25
2017-09-23T09:40:19.549Z,57.06
2017-09-23T09:41:19.251Z,56.38
2017-09-23T09:42:19.595Z,56.1
2017-09-23T09:43:19.499Z,55.62
2017-09-23T09:44:19.811Z,55.81
2017-09-23T09:45:19.659Z,55.81
2017-09-23T09:46:19.352Z,55.43
2017-09-23T09:47:19.693Z,55.9
2017-09-23T09:48:19.719Z,55.33
2017-09-23T09:49:19.950Z,55.71
2017-09-23T09:50:19.947Z,55.43
2017-09-23T09:51:19.777Z,55.52
2017-09-23T09:52:19.476Z,55.13
2017-09-23T09:53:19.817Z,55.33
2017-09-23T09:54:19.523Z,54.97
2017-09-23T09:55:19.643Z,55.16
2017-09-23T09:56:19.645Z,54.68
2017-09-23T09:57:19.907Z,54.97
2017-09-23T09:58:19.607Z,54.1
2017-09-23T09:59:19.623Z,54.68
2017-09-23T10:00:19.647Z,54.78
2017-09-23T10:01:19.676Z,54.39
2017-09-23T10:02:20.013Z,53.43
2017-09-23T10:03:20.026Z,53.81
2017-09-23T10:04:19.730Z,54
2017-09-23T10:05:20.074Z,52.75
2017-09-23T10:06:20.095Z,53.36
2017-09-23T10:07:19.843Z,53.07
2017-09-23T10:08:19.814Z,53.55
2017-09-23T10:09:19.835Z,53.45
2017-09-23T10:10:19.862Z,53.17
2017-09-23T10:11:19.880Z,52.87
2017-09-23T10:12:20.222Z,52.97
2017-09-23T10:13:20.241Z,52.87
2017-09-23T10:14:20.266Z,52.61
2017-09-23T10:15:20.282Z,52.33
2017-09-23T10:16:19.984Z,52.33
2017-09-23T10:17:20.430Z,52.33
2017-09-23T10:18:20.356Z,52.13
2017-09-23T10:19:20.370Z,51.94
2017-09-23T10:20:20.073Z,51.75
2017-09-23T10:21:20.448Z,51.94
2017-09-23T10:22:20.444Z,51.46
2017-09-23T10:23:20.457Z,51.29
2017-09-23T10:24:20.486Z,51.29
2017-09-23T10:25:20.183Z,51.2
2017-09-23T10:26:20.199Z,51.2
2017-09-23T10:27:20.544Z,51.2
2017-09-23T10:28:20.244Z,51.29
2017-09-23T10:29:20.270Z,50.9
2017-09-23T10:30:20.613Z,51.2
2017-09-23T10:31:20.316Z,51.1
2017-09-23T10:32:20.330Z,51
2017-09-23T10:33:20.354Z,50.54
2017-09-23T10:34:20.806Z,50.35
2017-09-23T10:35:20.723Z,50.54
2017-09-23T10:36:20.744Z,50.26
2017-09-23T10:37:20.764Z,50.06
2017-09-23T10:38:20.470Z,49.96
2017-09-23T10:39:20.838Z,49.48
2017-09-23T10:40:20.832Z,49.8
2017-09-23T10:41:20.531Z,49.32
2017-09-23T10:42:20.879Z,48.83
2017-09-23T10:43:20.896Z,48.35
2017-09-23T10:44:20.597Z,48.54
2017-09-23T10:45:20.945Z,48.74
2017-09-23T10:46:20.976Z,48.83
2017-09-23T10:47:20.670Z,48.16
2017-09-23T10:48:21.007Z,48.54
2017-09-23T10:49:21.038Z,48.74
2017-09-23T10:50:20.735Z,48.47
2017-09-23T10:51:20.757Z,48.37
2017-09-23T10:52:21.100Z,48.08
2017-09-23T10:53:21.122Z,47.99
2017-09-23T10:54:21.143Z,47.99
2017-09-23T10:55:20.847Z,47.6
2017-09-23T10:56:21.190Z,47.31
2017-09-23T10:57:21.216Z,47.7
2017-09-23T10:58:21.235Z,47.5
2017-09-23T10:59:20.939Z,47.7
2017-09-23T11:00:21.280Z,47.7
2017-09-23T11:01:21.304Z,47.7
2017-09-23T11:02:21.008Z,47.5
2017-09-23T11:03:21.353Z,47.6
2017-09-23T11:04:21.057Z,47.7
2017-09-23T11:05:21.402Z,47.63
2017-09-23T11:06:21.427Z,47.81
2017-09-23T11:07:21.448Z,47.24
2017-09-23T11:08:21.466Z,47.33
2017-09-23T11:09:21.498Z,46.95
2017-09-23T11:10:21.664Z,47.14
2017-09-23T11:11:21.650Z,46.85
2017-09-23T11:12:21.346Z,46.85
2017-09-23T11:13:21.330Z,46.56
2017-09-23T11:14:21.340Z,46.47
2017-09-23T11:15:21.310Z,46.47
2017-09-23T11:16:21.654Z,46.37
2017-09-23T11:17:21.359Z,46.27
2017-09-23T11:18:21.700Z,46.17
2017-09-23T11:19:21.406Z,46.47
2017-09-23T11:20:21.429Z,46.37
2017-09-23T11:21:21.767Z,46.08
2017-09-23T11:22:21.791Z,46.08
2017-09-23T11:23:21.500Z,45.98
2017-09-23T11:24:21.518Z,45.69
2017-09-23T11:25:21.540Z,45.59
2017-09-23T11:26:21.887Z,45.5
2017-09-23T11:27:21.605Z,45.21
2017-09-23T11:28:21.617Z,45.11
2017-09-23T11:29:21.982Z,45.21
2017-09-23T11:30:21.657Z,45.14
2017-09-23T11:31:21.687Z,45.14
2017-09-23T11:32:22.035Z,45.14
2017-09-23T11:33:22.058Z,45.11
2017-09-23T11:34:21.757Z,44.75
2017-09-23T11:35:21.778Z,44.65
2017-09-23T11:36:22.199Z,44.65
2017-09-23T11:37:22.147Z,44.56
2017-09-23T11:38:22.172Z,44.65
2017-09-23T11:39:21.872Z,44.56
2017-09-23T11:40:21.898Z,44.67
2017-09-23T11:41:22.242Z,44.57
2017-09-23T11:42:22.287Z,44.38
2017-09-23T11:43:22.294Z,44.19
2017-09-23T11:44:22.318Z,43.8
2017-09-23T11:45:22.013Z,43.51
2017-09-23T11:46:22.362Z,43.44
2017-09-23T11:47:22.063Z,43.61
2017-09-23T11:48:22.412Z,43.23
2017-09-23T11:49:22.114Z,43.73
2017-09-23T11:50:22.157Z,43.82
2017-09-23T11:51:22.484Z,43.63
2017-09-23T11:52:22.501Z,43.54
2017-09-23T11:53:22.529Z,43.15
2017-09-23T11:54:22.552Z,42.96
2017-09-23T11:55:22.579Z,43.15
2017-09-23T11:56:22.284Z,43.34
2017-09-23T11:57:22.629Z,42.86
2017-09-23T11:58:22.654Z,43.15
2017-09-23T11:59:22.673Z,43.44
2017-09-23T12:00:22.377Z,43.54
2017-09-23T12:01:22.405Z,43.24
2017-09-23T12:02:22.751Z,43.05
2017-09-23T12:03:22.788Z,42.57
2017-09-23T12:04:22.705Z,42.76
2017-09-23T12:05:22.824Z,42.66
2017-09-23T12:06:22.524Z,42.76
2017-09-23T12:07:22.552Z,42.66
2017-09-23T12:08:22.896Z,42.76
2017-09-23T12:09:22.612Z,42.57
2017-09-23T12:10:22.623Z,42.47
2017-09-23T12:11:22.643Z,42.57
2017-09-23T12:12:22.997Z,42.66
2017-09-23T12:13:23.023Z,42.28
2017-09-23T12:14:22.719Z,42.18
2017-09-23T12:15:23.067Z,42.37
2017-09-23T12:16:22.781Z,42.47
2017-09-23T12:17:23.132Z,42.37
2017-09-23T12:18:23.139Z,42.28
2017-09-23T12:19:22.846Z,42.47
2017-09-23T12:20:23.196Z,42.57
2017-09-23T12:21:22.895Z,42.66
2017-09-23T12:22:23.004Z,42.66
2017-09-23T12:23:22.950Z,42.57
2017-09-23T12:24:22.970Z,42.57
2017-09-23T12:25:23.073Z,42.28
2017-09-23T12:26:23.018Z,42.37
2017-09-23T12:27:23.268Z,42.47
2017-09-23T12:28:23.073Z,42.37
2017-09-23T12:29:23.410Z,42.18
2017-09-23T12:30:23.118Z,42.37
2017-09-23T12:31:23.138Z,41.89
2017-09-23T12:32:23.371Z,42.08
2017-09-23T12:33:23.188Z,41.99
2017-09-23T12:34:23.374Z,41.99
2017-09-23T12:35:23.240Z,41.89
2017-09-23T12:36:23.263Z,41.89
2017-09-23T12:37:23.288Z,42.08
2017-09-23T12:38:23.312Z,42.08
2017-09-23T12:39:23.337Z,41.99
2017-09-23T12:40:23.362Z,41.7
2017-09-23T12:41:23.712Z,42.08
2017-09-23T12:42:23.738Z,41.41
2017-09-23T12:43:23.443Z,41.31
2017-09-23T12:44:23.461Z,41.31
2017-09-23T12:45:23.493Z,41.31
2017-09-23T12:46:23.510Z,41.31
2017-09-23T12:47:23.537Z,41.31
2017-09-23T12:48:23.880Z,41.31
2017-09-23T12:49:23.587Z,41.41
2017-09-23T12:50:23.621Z,41.41
2017-09-23T12:51:23.645Z,41.41
2017-09-23T12:52:23.670Z,41.6
2017-09-23T12:53:23.698Z,41.5
2017-09-23T12:54:23.716Z,41.41
2017-09-23T12:55:24.140Z,41.41
2017-09-23T12:56:23.766Z,41.41
2017-09-23T12:57:23.796Z,41.31